Decoded Metar for LCPH (PAPHOS in CYPRUS) (IATA:PFO) | Meteo·Mobile Aviation Weather
aviador You're here:

LCPH Decoded Metar

PAPHOS in CYPRUS
Report Time2019-09-17 04:30:00
UTC Time2019-09-17 05:10:44
Flight Rules vfr VFR
Wind020° at 09 kt
W.Decomp.*RWY 29: 0.6 kt HW 9.0 kt RCW
Visibility9999 m
Phenomena:N/A
Clouds:Few 020 Hf
Scattered 025 Hf
Expected CloudBase > 2,400 ft AGL from Temp-Dew spread
CeilingNone
Temp21°C (ISA +6)
Dew Point15°C (69% RH)
AAT19.4°C
QNH1013 hPa
Density Alt961 ft
Elevation26 ft
Report Wrong Elevation
Raw Report
LCPH 170430Z 02009KT 9999 FEW020 SCT025 21/15 Q1013=

Extra information for LCPH:More info

Metar Taf Metar & Taf Last 4 Metars F.Rules Stats Wind Profile Meteogram Temp Stats Airport Information Weather charts Add Link Nearby VenuesMetar ALERT Operation Metar Decoded Social comments